Tümü
Golden Grove Airport (Golden Grove, Western Australia) YGGE Hava Durumu
|
Golden Grove, Western Australia (YGGE)
Açık
Hafif rüzgârlı |
|
22 °C |
YGGE Terminal Alan Tahmini
| Date | Time (AWST) | Flight Rules | Wind Dir. | Speed | Type | Height AGL (ft) | Visibility | Remarks | ||||||
|---|---|---|---|---|---|---|---|---|---|---|---|---|---|---|
Yakın zamandaki YGGE METAR geçmişi
| Date | Time (AWST) | Flight Rules | Wind Dir. | Speed | Type | Height AGL (ft) | Visibility | Temp (°C) | Temp (°F) | Dew Point (°C) | Dew Point (°F) | Rel. Humid. | Pressure | Density Altitude | Remarks |
|---|---|---|---|---|---|---|---|---|---|---|---|---|---|---|---|
| 09-May | 14:00 | VFR | 60° | 9 kt | 10000 meters | 22° | 71° | -1° | 30° | 21% | 1023 mb | 1.973 ft | |||
| 09-May | 13:00 | VFR | 70° | 9 kt | 10000 meters | 21° | 69° | 1° | 33° | 26% | 1024 mb | 1.824 ft | |||
| 09-May | 12:00 | VFR | 40° | 10 kt | 10000 meters | 20° | 68° | 1° | 33° | 28% | 1025 mb | 1.674 ft | |||
| 09-May | 11:00 | VFR | 40° | 12 kt | 10000 meters | 19° | 66° | 2° | 35° | 32% | 1026 mb | 1.525 ft | |||
| 09-May | 10:00 | VFR | 40° | 15 kt | 10000 meters | 17° | 62° | 2° | 35° | 36% | 1027 mb | 1.255 ft | |||
| 09-May | 09:00 | VFR | 40° | 14 kt | 10000 meters | 16° | 60° | 3° | 37° | 42% | 1027 mb | 1.135 ft | |||
| 09-May | 08:00 | VFR | 70° | 10 kt | 10000 meters | 13° | 55° | 3° | 37° | 51% | 1027 mb | 775 ft | |||
| 09-May | 07:00 | VFR | 100° | 6 kt | 10000 meters | 9° | 48° | 2° | 35° | 61% | 1027 mb | 295 ft | |||
| 09-May | 06:00 | VFR | 110° | 7 kt | 10000 meters | 10° | 50° | 2° | 35° | 57% | 1026 mb | 445 ft | |||
| 09-May | 05:00 | VFR | 70° | 7 kt | 10000 meters | 11° | 51° | 2° | 35° | 54% | 1026 mb | 565 ft | |||
| 09-May | 04:00 | VFR | 80° | 9 kt | 10000 meters | 11° | 51° | 2° | 35° | 54% | 1026 mb | 565 ft | |||
| 09-May | 03:00 | VFR | 90° | 8 kt | 10000 meters | 11° | 51° | 2° | 35° | 54% | 1026 mb | 565 ft | |||
| 09-May | 02:00 | VFR | 90° | 9 kt | 10000 meters | 13° | 55° | 2° | 35° | 47% | 1025 mb | 834 ft | |||
| 09-May | 01:00 | VFR | 80° | 10 kt | 10000 meters | 15° | 59° | 2° | 35° | 41% | 1025 mb | 1.074 ft | |||
| 09-May | 00:00 | VFR | 70° | 11 kt | 10000 meters | 15° | 59° | 2° | 35° | 41% | 1026 mb | 1.045 ft | |||
| 08-May | 23:00 | VFR | 80° | 10 kt | 10000 meters | 16° | 60° | 3° | 37° | 42% | 1026 mb | 1.165 ft | |||
| 08-May | 22:00 | VFR | 80° | 8 kt | 10000 meters | 16° | 60° | 3° | 37° | 42% | 1026 mb | 1.165 ft | |||
| 08-May | 21:00 | VFR | 80° | 10 kt | 10000 meters | 17° | 62° | 4° | 39° | 42% | 1026 mb | 1.285 ft | |||
| 08-May | 20:00 | VFR | 80° | 9 kt | 10000 meters | 18° | 64° | 3° | 37° | 37% | 1025 mb | 1.434 ft | |||
| 08-May | 19:00 | VFR | 80° | 11 kt | 10000 meters | 19° | 66° | 3° | 37° | 34% | 1024 mb | 1.584 ft | |||
| 08-May | 18:00 | VFR | 80° | 9 kt | 10000 meters | 20° | 68° | 3° | 37° | 32% | 1024 mb | 1.704 ft | |||
| 08-May | 17:00 | VFR | 80° | 12 kt | 10000 meters | 22° | 71° | 3° | 37° | 29% | 1024 mb | 1.944 ft | |||
| 08-May | 16:00 | VFR | 90° | 13 kt | 10000 meters | 22° | 71° | 3° | 37° | 29% | 1024 mb | 1.944 ft | |||
| 08-May | 15:00 | VFR | 80° | 14 kt | 10000 meters | 22° | 71° | 3° | 37° | 29% | 1024 mb | 1.944 ft |
Giriş
| Tarayıcınız desteklenmiyor. tarayıcınızı yükseltin |
